createdAt,value
2023-04-13T00:02:18.470Z,11.38
2023-04-13T00:07:20.062Z,11.42
2023-04-13T00:12:21.561Z,11.46
2023-04-13T00:17:23.054Z,11.52
2023-04-13T00:22:27.589Z,11.39
2023-04-13T00:27:29.075Z,11.32
2023-04-13T00:32:34.407Z,11.43
2023-04-13T00:37:36.026Z,11.34
2023-04-13T00:42:37.602Z,11.36
2023-04-13T00:47:40.314Z,11.34
2023-04-13T00:52:42.298Z,11.35
2023-04-13T00:57:43.784Z,11.42
2023-04-13T01:02:45.534Z,11.41
2023-04-13T01:08:05.850Z,11.51
2023-04-13T01:13:07.426Z,11.32
2023-04-13T01:18:13.661Z,11.32
2023-04-13T01:23:41.154Z,11.29
2023-04-13T01:28:43.136Z,11.13
2023-04-13T01:33:45.029Z,11.02
2023-04-13T01:38:46.860Z,10.98
2023-04-13T01:43:50.332Z,11.01
2023-04-13T01:48:56.875Z,11.08
2023-04-13T01:54:13.235Z,11.09
2023-04-13T01:59:17.981Z,11.03
2023-04-13T02:04:19.674Z,11.13
2023-04-13T02:09:21.347Z,11.06
2023-04-13T02:14:27.220Z,11.18
2023-04-13T02:19:28.763Z,11.19
2023-04-13T02:24:30.222Z,11.16
2023-04-13T02:29:31.730Z,11.18
2023-04-13T02:34:33.443Z,11.28
2023-04-13T02:39:35.240Z,11.29
2023-04-13T02:44:37.910Z,11.27
2023-04-13T02:49:40.139Z,11.15
2023-04-13T02:54:55.135Z,10.95
2023-04-13T03:00:01.462Z,10.61
2023-04-13T03:05:14.949Z,10.53
2023-04-13T03:10:16.549Z,10.53
2023-04-13T03:15:19.878Z,10.52
2023-04-13T03:20:21.974Z,10.51
2023-04-13T03:25:31.181Z,10.50
2023-04-13T03:30:34.683Z,10.53
2023-04-13T03:35:37.092Z,10.51
2023-04-13T03:40:42.279Z,10.46
2023-04-13T03:45:44.818Z,10.50
2023-04-13T03:50:49.251Z,10.61
2023-04-13T03:55:55.730Z,10.75
2023-04-13T04:00:57.322Z,10.87
2023-04-13T04:06:13.819Z,10.86
2023-04-13T04:11:21.669Z,10.80
2023-04-13T04:16:23.111Z,10.70
2023-04-13T04:21:30.979Z,10.74
2023-04-13T04:26:32.502Z,10.71
2023-04-13T04:31:37.400Z,10.76
2023-04-13T04:36:43.814Z,10.82
2023-04-13T04:41:45.304Z,10.96
2023-04-13T04:46:47.595Z,10.99
2023-04-13T04:51:49.934Z,10.94
2023-04-13T04:56:54.012Z,10.88
2023-04-13T05:01:56.176Z,10.90
2023-04-13T05:06:57.826Z,10.81
2023-04-13T05:12:00.719Z,10.73
2023-04-13T05:17:02.329Z,10.78
2023-04-13T05:22:08.736Z,10.81
2023-04-13T05:27:17.116Z,10.91
2023-04-13T05:32:18.747Z,10.90
2023-04-13T05:37:22.546Z,10.93
2023-04-13T05:42:24.212Z,10.78
2023-04-13T05:47:26.240Z,10.70
2023-04-13T05:52:32.918Z,10.51
2023-04-13T05:57:34.552Z,10.47
2023-04-13T06:02:40.674Z,10.28
2023-04-13T06:07:45.749Z,10.21
2023-04-13T06:12:47.205Z,10.38
2023-04-13T06:17:51.526Z,10.64
2023-04-13T06:22:53.070Z,10.82
2023-04-13T06:27:56.796Z,10.95
2023-04-13T06:32:58.800Z,10.91
2023-04-13T06:38:02.540Z,10.86
2023-04-13T06:43:26.434Z,10.61
2023-04-13T06:48:46.893Z,10.53
2023-04-13T06:53:50.571Z,10.62
2023-04-13T06:58:52.858Z,10.73
2023-04-13T07:03:55.085Z,10.89
2023-04-13T07:08:58.137Z,10.98
2023-04-13T07:14:01.240Z,10.95
2023-04-13T07:19:02.771Z,11.02
2023-04-13T07:24:05.138Z,11.05
2023-04-13T07:29:09.426Z,11.07
2023-04-13T07:34:11.892Z,10.89
2023-04-13T07:39:19.299Z,10.85
2023-04-13T07:44:23.327Z,10.89
2023-04-13T07:49:24.920Z,11.12
2023-04-13T07:54:27.945Z,11.27
2023-04-13T07:59:29.616Z,11.14
2023-04-13T08:04:33.620Z,11.38
2023-04-13T08:09:40.113Z,11.64
2023-04-13T08:14:41.782Z,11.85
2023-04-13T08:19:44.727Z,11.97
2023-04-13T08:24:48.796Z,11.92
2023-04-13T08:29:54.769Z,12.00
2023-04-13T08:34:56.822Z,12.16
2023-04-13T08:39:58.450Z,12.19
2023-04-13T08:45:00.886Z,12.34
2023-04-13T08:50:03.495Z,12.44
2023-04-13T08:55:21.086Z,12.43
2023-04-13T09:00:25.086Z,12.41
2023-04-13T09:05:28.448Z,12.43
2023-04-13T09:10:34.589Z,12.43
2023-04-13T09:15:36.087Z,12.22
2023-04-13T09:20:58.013Z,12.34
2023-04-13T09:26:09.259Z,12.31
2023-04-13T09:31:13.133Z,11.88
2023-04-13T09:36:17.176Z,11.43
2023-04-13T09:41:33.446Z,11.66
2023-04-13T09:46:34.970Z,12.09
2023-04-13T09:51:40.837Z,12.20
2023-04-13T09:56:47.553Z,12.35
2023-04-13T10:01:50.236Z,12.69
2023-04-13T10:06:51.981Z,12.63
2023-04-13T10:11:55.926Z,12.70
2023-04-13T10:17:16.287Z,12.74
2023-04-13T10:22:19.221Z,13.10
2023-04-13T10:27:22.250Z,13.68
2023-04-13T10:32:27.151Z,14.00
2023-04-13T10:37:28.739Z,14.05
2023-04-13T10:42:50.785Z,14.23
2023-04-13T10:47:55.005Z,13.76
2023-04-13T10:52:57.363Z,13.73
2023-04-13T10:58:00.411Z,13.59
2023-04-13T11:03:03.231Z,13.47
2023-04-13T11:08:05.602Z,13.29
2023-04-13T11:13:07.075Z,13.52
2023-04-13T11:18:08.628Z,13.81
2023-04-13T11:23:14.484Z,13.94
2023-04-13T11:28:15.968Z,14.03
2023-04-13T11:33:24.349Z,14.29
2023-04-13T11:38:26.576Z,14.33
2023-04-13T11:43:28.136Z,14.22
2023-04-13T11:48:29.698Z,13.83
2023-04-13T11:53:31.625Z,13.48
2023-04-13T11:58:33.252Z,13.12
2023-04-13T12:03:51.778Z,13.28
2023-04-13T12:09:10.044Z,13.48
2023-04-13T12:19:28.132Z,13.68
2023-04-13T12:24:37.875Z,13.81
2023-04-13T12:29:40.291Z,13.92
2023-04-13T12:34:42.684Z,14.03
2023-04-13T12:39:44.209Z,13.85
2023-04-13T12:44:45.734Z,13.95
2023-04-13T12:49:47.233Z,14.10
2023-04-13T12:54:48.692Z,14.33
2023-04-13T12:59:50.111Z,14.40
2023-04-13T13:04:51.973Z,14.38
2023-04-13T13:09:53.512Z,14.09
2023-04-13T13:14:55.008Z,13.95
2023-04-13T13:19:56.788Z,14.13
2023-04-13T13:24:58.294Z,13.93
2023-04-13T13:29:59.773Z,13.73
2023-04-13T13:35:01.263Z,13.59
2023-04-13T13:40:03.031Z,13.38
2023-04-13T13:45:04.952Z,13.07
2023-04-13T13:50:07.085Z,13.06
2023-04-13T13:55:13.894Z,13.01
2023-04-13T14:00:15.746Z,12.96
2023-04-13T14:05:17.305Z,12.81
2023-04-13T14:10:18.864Z,12.42
2023-04-13T14:15:20.351Z,12.31
2023-04-13T14:20:21.755Z,12.49
2023-04-13T14:25:23.642Z,12.37
2023-04-13T14:30:27.469Z,12.67
2023-04-13T14:35:29.755Z,12.78
2023-04-13T14:40:31.275Z,12.92
2023-04-13T14:45:32.718Z,13.09
2023-04-13T14:50:38.148Z,13.19
2023-04-13T14:55:39.679Z,13.19
2023-04-13T15:00:41.259Z,13.23
2023-04-13T15:05:44.583Z,13.28
2023-04-13T15:10:46.134Z,13.45
2023-04-13T15:15:47.585Z,13.17
2023-04-13T15:20:49.048Z,13.10
2023-04-13T15:25:50.468Z,13.32
2023-04-13T15:30:51.908Z,13.33
2023-04-13T15:35:53.329Z,12.98
2023-04-13T15:40:54.834Z,13.10
2023-04-13T15:45:56.289Z,13.01
2023-04-13T15:51:01.087Z,12.93
2023-04-13T15:56:02.588Z,12.78
2023-04-13T16:01:05.944Z,12.03
2023-04-13T16:06:07.938Z,11.84
2023-04-13T16:11:09.435Z,12.05
2023-04-13T16:16:10.932Z,11.51
2023-04-13T16:21:12.412Z,11.35
2023-04-13T16:26:13.835Z,11.40
2023-04-13T16:31:15.309Z,11.16
2023-04-13T16:36:16.735Z,10.98
2023-04-13T16:41:18.162Z,10.18
2023-04-13T16:46:19.556Z,9.95
2023-04-13T16:51:21.113Z,10.04
2023-04-13T16:56:22.728Z,10.06
2023-04-13T17:01:24.230Z,10.01
2023-04-13T17:06:25.940Z,9.83
2023-04-13T17:11:27.499Z,9.80
2023-04-13T17:16:29.003Z,9.92
2023-04-13T17:21:30.446Z,9.93
2023-04-13T17:26:31.867Z,9.99
2023-04-13T17:31:33.365Z,10.26
2023-04-13T17:36:34.841Z,10.38
2023-04-13T17:41:36.366Z,10.28
2023-04-13T17:46:37.845Z,10.16
2023-04-13T17:51:39.282Z,10.48
2023-04-13T17:56:40.860Z,10.48
2023-04-13T18:01:42.881Z,10.45
2023-04-13T18:06:44.385Z,10.51
2023-04-13T18:11:45.814Z,10.43
2023-04-13T18:16:47.342Z,10.48
2023-04-13T18:21:48.799Z,10.51
2023-04-13T18:26:50.293Z,10.39
2023-04-13T18:31:51.807Z,10.32
2023-04-13T18:36:53.282Z,10.16
2023-04-13T18:41:54.750Z,10.30
2023-04-13T18:46:56.231Z,10.24
2023-04-13T18:51:57.802Z,10.07
2023-04-13T18:56:59.300Z,10.01
2023-04-13T19:02:00.864Z,9.95
2023-04-13T19:07:02.451Z,9.86
2023-04-13T19:12:05.460Z,9.75
2023-04-13T19:17:06.891Z,9.48
2023-04-13T19:22:08.353Z,9.52
2023-04-13T19:27:09.797Z,9.40
2023-04-13T19:32:12.071Z,9.30
2023-04-13T19:37:13.809Z,8.98
2023-04-13T19:42:15.368Z,9.16
2023-04-13T19:47:17.188Z,9.24
2023-04-13T19:52:18.623Z,9.39
2023-04-13T19:57:20.068Z,9.34
2023-04-13T20:02:21.904Z,9.46
2023-04-13T20:07:23.468Z,9.61
2023-04-13T20:12:27.592Z,9.70
2023-04-13T20:17:29.254Z,9.76
2023-04-13T20:22:30.715Z,9.92
2023-04-13T20:27:32.138Z,9.88
2023-04-13T20:32:33.648Z,10.01
2023-04-13T20:37:35.756Z,9.98
2023-04-13T20:42:37.374Z,9.96
2023-04-13T20:47:38.845Z,9.95
2023-04-13T20:52:40.280Z,9.95
2023-04-13T20:57:41.680Z,9.90
2023-04-13T21:02:43.441Z,9.95
2023-04-13T21:07:45.140Z,9.98
2023-04-13T21:12:46.594Z,10.02
2023-04-13T21:17:48.022Z,9.99
2023-04-13T21:22:49.515Z,9.99
2023-04-13T21:27:50.976Z,9.97
2023-04-13T21:32:52.415Z,9.97
2023-04-13T21:37:53.879Z,10.21
2023-04-13T21:42:55.365Z,10.10
2023-04-13T21:47:56.814Z,9.92
2023-04-13T21:52:58.331Z,9.92
2023-04-13T21:57:59.781Z,9.88
2023-04-13T22:03:01.663Z,9.77
2023-04-13T22:08:03.359Z,9.79
2023-04-13T22:13:04.854Z,9.80
2023-04-13T22:18:06.394Z,9.75
2023-04-13T22:23:07.851Z,9.90
2023-04-13T22:28:09.502Z,9.96
2023-04-13T22:33:11.012Z,9.92
2023-04-13T22:38:12.435Z,9.98
2023-04-13T22:43:13.912Z,9.84
2023-04-13T22:48:15.334Z,9.98
2023-04-13T22:53:16.824Z,10.02
2023-04-13T22:58:18.448Z,9.79
2023-04-13T23:03:20.104Z,9.78
2023-04-13T23:08:21.762Z,9.77
2023-04-13T23:13:23.237Z,9.83
2023-04-13T23:18:24.726Z,9.53
2023-04-13T23:23:26.220Z,9.58
2023-04-13T23:28:27.696Z,9.79
2023-04-13T23:33:29.128Z,9.80
2023-04-13T23:38:31.483Z,9.82
2023-04-13T23:43:32.992Z,9.81
2023-04-13T23:48:34.399Z,9.72
2023-04-13T23:53:35.826Z,9.72
2023-04-13T23:58:37.240Z,9.70
